sensor_id;sensor_type;location;lat;lon;timestamp;temperature;humidity
44509;DHT22;30214;52.246;14.408;2022-09-01T00:01:46;15.20;99.90
44509;DHT22;30214;52.246;14.408;2022-09-01T00:04:17;15.10;99.90
44509;DHT22;30214;52.246;14.408;2022-09-01T00:06:47;15.10;99.90
44509;DHT22;30214;52.246;14.408;2022-09-01T00:09:18;15.10;99.90
44509;DHT22;30214;52.246;14.408;2022-09-01T00:11:48;15.10;99.90
44509;DHT22;30214;52.246;14.408;2022-09-01T00:14:17;15.20;99.90
44509;DHT22;30214;52.246;14.408;2022-09-01T00:16:44;15.30;99.90
44509;DHT22;30214;52.246;14.408;2022-09-01T00:19:12;15.20;99.90
44509;DHT22;30214;52.246;14.408;2022-09-01T00:21:42;15.20;99.90
44509;DHT22;30214;52.246;14.408;2022-09-01T00:24:14;15.20;99.90
44509;DHT22;30214;52.246;14.408;2022-09-01T00:26:42;15.30;99.90
44509;DHT22;30214;52.246;14.408;2022-09-01T00:29:09;15.30;99.90
44509;DHT22;30214;52.246;14.408;2022-09-01T00:31:42;15.30;99.90
44509;DHT22;30214;52.246;14.408;2022-09-01T00:34:10;15.30;99.90
44509;DHT22;30214;52.246;14.408;2022-09-01T00:36:37;15.30;99.90
44509;DHT22;30214;52.246;14.408;2022-09-01T00:39:05;15.20;99.90
44509;DHT22;30214;52.246;14.408;2022-09-01T00:41:37;15.10;99.90
44509;DHT22;30214;52.246;14.408;2022-09-01T00:44:08;15.10;99.90
44509;DHT22;30214;52.246;14.408;2022-09-01T00:46:39;15.10;99.90
44509;DHT22;30214;52.246;14.408;2022-09-01T00:49:11;15.20;99.90
44509;DHT22;30214;52.246;14.408;2022-09-01T00:51:48;15.20;99.90
44509;DHT22;30214;52.246;14.408;2022-09-01T00:54:20;15.20;99.90
44509;DHT22;30214;52.246;14.408;2022-09-01T00:56:56;15.30;99.90
44509;DHT22;30214;52.246;14.408;2022-09-01T00:59:25;15.20;99.90
44509;DHT22;30214;52.246;14.408;2022-09-01T01:01:52;15.20;99.90
44509;DHT22;30214;52.246;14.408;2022-09-01T01:04:21;15.30;99.90
44509;DHT22;30214;52.246;14.408;2022-09-01T01:06:53;15.20;99.90
44509;DHT22;30214;52.246;14.408;2022-09-01T01:09:29;15.10;99.90
44509;DHT22;30214;52.246;14.408;2022-09-01T01:12:04;15.10;99.90
44509;DHT22;30214;52.246;14.408;2022-09-01T01:14:34;15.10;99.90
44509;DHT22;30214;52.246;14.408;2022-09-01T01:17:04;15.10;99.90
44509;DHT22;30214;52.246;14.408;2022-09-01T01:19:39;15.10;99.90
44509;DHT22;30214;52.246;14.408;2022-09-01T01:22:36;15.10;99.90
44509;DHT22;30214;52.246;14.408;2022-09-01T01:25:26;15.10;99.90
44509;DHT22;30214;52.246;14.408;2022-09-01T01:28:07;15.00;99.90
44509;DHT22;30214;52.246;14.408;2022-09-01T01:30:39;15.00;99.90
44509;DHT22;30214;52.246;14.408;2022-09-01T01:33:07;15.10;99.90
44509;DHT22;30214;52.246;14.408;2022-09-01T01:35:35;15.20;99.90
44509;DHT22;30214;52.246;14.408;2022-09-01T01:38:04;15.10;99.90
44509;DHT22;30214;52.246;14.408;2022-09-01T01:40:35;15.10;99.90
44509;DHT22;30214;52.246;14.408;2022-09-01T01:43:04;15.10;99.90
44509;DHT22;30214;52.246;14.408;2022-09-01T01:45:33;15.10;99.90
44509;DHT22;30214;52.246;14.408;2022-09-01T01:48:01;15.00;99.90
44509;DHT22;30214;52.246;14.408;2022-09-01T01:50:32;14.90;99.90
44509;DHT22;30214;52.246;14.408;2022-09-01T01:53:05;14.90;99.90
44509;DHT22;30214;52.246;14.408;2022-09-01T01:55:36;14.90;99.90
44509;DHT22;30214;52.246;14.408;2022-09-01T01:58:03;14.80;99.90
44509;DHT22;30214;52.246;14.408;2022-09-01T02:00:33;14.70;99.90
44509;DHT22;30214;52.246;14.408;2022-09-01T02:03:02;14.70;99.90
44509;DHT22;30214;52.246;14.408;2022-09-01T02:05:34;14.70;99.90
44509;DHT22;30214;52.246;14.408;2022-09-01T02:08:05;14.70;99.90
44509;DHT22;30214;52.246;14.408;2022-09-01T02:10:38;14.70;99.90
44509;DHT22;30214;52.246;14.408;2022-09-01T02:13:09;14.70;99.90
44509;DHT22;30214;52.246;14.408;2022-09-01T02:15:43;14.60;99.90
44509;DHT22;30214;52.246;14.408;2022-09-01T02:18:13;14.60;99.90
44509;DHT22;30214;52.246;14.408;2022-09-01T02:20:42;14.70;99.90
44509;DHT22;30214;52.246;14.408;2022-09-01T02:23:09;14.70;99.90
44509;DHT22;30214;52.246;14.408;2022-09-01T02:25:41;14.70;99.90
44509;DHT22;30214;52.246;14.408;2022-09-01T02:28:12;14.60;99.90
44509;DHT22;30214;52.246;14.408;2022-09-01T02:30:41;14.50;99.90
44509;DHT22;30214;52.246;14.408;2022-09-01T02:33:10;14.60;99.90
44509;DHT22;30214;52.246;14.408;2022-09-01T02:35:43;14.50;99.90
44509;DHT22;30214;52.246;14.408;2022-09-01T02:38:11;14.40;99.90
44509;DHT22;30214;52.246;14.408;2022-09-01T02:40:40;14.30;99.90
44509;DHT22;30214;52.246;14.408;2022-09-01T02:43:08;14.20;99.90
44509;DHT22;30214;52.246;14.408;2022-09-01T02:45:37;14.10;99.90
44509;DHT22;30214;52.246;14.408;2022-09-01T02:48:09;14.00;99.90
44509;DHT22;30214;52.246;14.408;2022-09-01T02:50:38;13.80;99.90
44509;DHT22;30214;52.246;14.408;2022-09-01T02:53:07;13.80;99.90
44509;DHT22;30214;52.246;14.408;2022-09-01T02:55:37;13.70;99.90
44509;DHT22;30214;52.246;14.408;2022-09-01T02:58:06;13.70;99.90
44509;DHT22;30214;52.246;14.408;2022-09-01T03:00:38;13.80;99.90
44509;DHT22;30214;52.246;14.408;2022-09-01T03:03:06;13.70;99.90
44509;DHT22;30214;52.246;14.408;2022-09-01T03:05:34;13.70;99.90
44509;DHT22;30214;52.246;14.408;2022-09-01T03:08:09;13.70;99.90
44509;DHT22;30214;52.246;14.408;2022-09-01T03:10:43;13.70;99.90
44509;DHT22;30214;52.246;14.408;2022-09-01T03:13:16;13.80;99.90
44509;DHT22;30214;52.246;14.408;2022-09-01T03:15:46;13.80;99.90
44509;DHT22;30214;52.246;14.408;2022-09-01T03:18:15;13.80;99.90
44509;DHT22;30214;52.246;14.408;2022-09-01T03:20:45;13.80;99.90
44509;DHT22;30214;52.246;14.408;2022-09-01T03:23:16;13.70;99.90
44509;DHT22;30214;52.246;14.408;2022-09-01T03:25:45;13.80;99.90
44509;DHT22;30214;52.246;14.408;2022-09-01T03:28:16;13.70;99.90
44509;DHT22;30214;52.246;14.408;2022-09-01T03:30:45;13.60;99.90
44509;DHT22;30214;52.246;14.408;2022-09-01T03:33:15;13.40;99.90
44509;DHT22;30214;52.246;14.408;2022-09-01T03:35:43;13.30;99.90
44509;DHT22;30214;52.246;14.408;2022-09-01T03:38:12;13.30;99.90
44509;DHT22;30214;52.246;14.408;2022-09-01T03:40:49;13.30;99.90
44509;DHT22;30214;52.246;14.408;2022-09-01T03:43:20;13.40;99.90
44509;DHT22;30214;52.246;14.408;2022-09-01T03:45:52;13.40;99.90
44509;DHT22;30214;52.246;14.408;2022-09-01T03:48:21;13.30;99.90
44509;DHT22;30214;52.246;14.408;2022-09-01T03:50:52;13.30;99.90
44509;DHT22;30214;52.246;14.408;2022-09-01T03:53:22;13.20;99.90
44509;DHT22;30214;52.246;14.408;2022-09-01T03:55:56;13.10;99.90
44509;DHT22;30214;52.246;14.408;2022-09-01T03:58:26;12.90;99.90
44509;DHT22;30214;52.246;14.408;2022-09-01T04:00:55;12.80;99.90
44509;DHT22;30214;52.246;14.408;2022-09-01T04:03:27;12.90;99.90
44509;DHT22;30214;52.246;14.408;2022-09-01T04:05:59;12.80;99.90
44509;DHT22;30214;52.246;14.408;2022-09-01T04:08:27;12.80;99.90
44509;DHT22;30214;52.246;14.408;2022-09-01T04:10:59;12.80;99.90
44509;DHT22;30214;52.246;14.408;2022-09-01T04:13:36;12.70;99.90
44509;DHT22;30214;52.246;14.408;2022-09-01T04:16:05;12.80;99.90
44509;DHT22;30214;52.246;14.408;2022-09-01T04:18:35;12.70;99.90
44509;DHT22;30214;52.246;14.408;2022-09-01T04:21:03;12.60;99.90
44509;DHT22;30214;52.246;14.408;2022-09-01T04:23:35;12.60;99.90
44509;DHT22;30214;52.246;14.408;2022-09-01T04:26:10;12.70;99.90
44509;DHT22;30214;52.246;14.408;2022-09-01T04:28:43;12.70;99.90
44509;DHT22;30214;52.246;14.408;2022-09-01T04:31:14;12.60;99.90
44509;DHT22;30214;52.246;14.408;2022-09-01T04:33:47;12.60;99.90
44509;DHT22;30214;52.246;14.408;2022-09-01T04:36:20;12.50;99.90
44509;DHT22;30214;52.246;14.408;2022-09-01T04:38:52;12.50;99.90
44509;DHT22;30214;52.246;14.408;2022-09-01T04:41:26;12.50;99.90
44509;DHT22;30214;52.246;14.408;2022-09-01T04:44:01;12.60;99.90
44509;DHT22;30214;52.246;14.408;2022-09-01T04:46:34;12.60;99.90
44509;DHT22;30214;52.246;14.408;2022-09-01T04:49:05;12.80;99.90
44509;DHT22;30214;52.246;14.408;2022-09-01T04:51:37;13.10;99.90
44509;DHT22;30214;52.246;14.408;2022-09-01T04:54:06;13.70;99.90
44509;DHT22;30214;52.246;14.408;2022-09-01T04:56:37;14.20;99.90
44509;DHT22;30214;52.246;14.408;2022-09-01T04:59:12;14.60;99.90
44509;DHT22;30214;52.246;14.408;2022-09-01T05:01:41;15.00;99.90
44509;DHT22;30214;52.246;14.408;2022-09-01T05:04:14;15.40;99.90
44509;DHT22;30214;52.246;14.408;2022-09-01T05:06:46;15.90;99.90
44509;DHT22;30214;52.246;14.408;2022-09-01T05:09:16;15.80;99.90
44509;DHT22;30214;52.246;14.408;2022-09-01T05:11:54;16.00;99.90
44509;DHT22;30214;52.246;14.408;2022-09-01T05:14:29;16.10;99.90
44509;DHT22;30214;52.246;14.408;2022-09-01T05:16:58;15.90;99.90
44509;DHT22;30214;52.246;14.408;2022-09-01T05:19:27;16.00;99.90
44509;DHT22;30214;52.246;14.408;2022-09-01T05:21:57;15.80;99.90
44509;DHT22;30214;52.246;14.408;2022-09-01T05:24:25;15.50;99.90
44509;DHT22;30214;52.246;14.408;2022-09-01T05:26:56;15.30;99.90
44509;DHT22;30214;52.246;14.408;2022-09-01T05:29:26;15.40;99.90
44509;DHT22;30214;52.246;14.408;2022-09-01T05:31:56;15.40;99.90
44509;DHT22;30214;52.246;14.408;2022-09-01T05:34:25;15.60;99.90
44509;DHT22;30214;52.246;14.408;2022-09-01T05:36:56;15.70;99.90
44509;DHT22;30214;52.246;14.408;2022-09-01T05:39:27;16.00;99.90
44509;DHT22;30214;52.246;14.408;2022-09-01T05:41:55;15.80;99.90
44509;DHT22;30214;52.246;14.408;2022-09-01T05:44:24;16.00;99.90
44509;DHT22;30214;52.246;14.408;2022-09-01T05:46:54;16.40;99.90
44509;DHT22;30214;52.246;14.408;2022-09-01T05:49:29;16.60;99.90
44509;DHT22;30214;52.246;14.408;2022-09-01T05:52:04;16.80;99.90
44509;DHT22;30214;52.246;14.408;2022-09-01T05:54:34;16.80;99.90
44509;DHT22;30214;52.246;14.408;2022-09-01T05:57:03;16.20;99.90
44509;DHT22;30214;52.246;14.408;2022-09-01T05:59:34;16.40;99.90
44509;DHT22;30214;52.246;14.408;2022-09-01T06:02:12;16.50;99.90
44509;DHT22;30214;52.246;14.408;2022-09-01T06:04:43;16.40;99.90
44509;DHT22;30214;52.246;14.408;2022-09-01T06:07:19;16.20;99.90
44509;DHT22;30214;52.246;14.408;2022-09-01T06:09:51;16.10;99.90
44509;DHT22;30214;52.246;14.408;2022-09-01T06:12:22;16.20;99.90
44509;DHT22;30214;52.246;14.408;2022-09-01T06:14:54;16.60;99.90
44509;DHT22;30214;52.246;14.408;2022-09-01T06:17:28;16.70;99.90
44509;DHT22;30214;52.246;14.408;2022-09-01T06:19:59;17.00;99.90
44509;DHT22;30214;52.246;14.408;2022-09-01T06:22:38;17.10;99.90
44509;DHT22;30214;52.246;14.408;2022-09-01T06:25:06;17.70;99.90
44509;DHT22;30214;52.246;14.408;2022-09-01T06:27:37;18.10;99.90
44509;DHT22;30214;52.246;14.408;2022-09-01T06:30:11;18.40;99.90
44509;DHT22;30214;52.246;14.408;2022-09-01T06:32:58;18.60;99.90
44509;DHT22;30214;52.246;14.408;2022-09-01T06:35:27;18.80;99.90
44509;DHT22;30214;52.246;14.408;2022-09-01T06:37:55;18.80;99.70
44509;DHT22;30214;52.246;14.408;2022-09-01T06:40:38;18.70;99.20
44509;DHT22;30214;52.246;14.408;2022-09-01T06:43:09;18.50;99.70
44509;DHT22;30214;52.246;14.408;2022-09-01T06:45:42;18.80;99.70
44509;DHT22;30214;52.246;14.408;2022-09-01T06:48:13;18.90;99.30
44509;DHT22;30214;52.246;14.408;2022-09-01T06:50:43;19.00;98.70
44509;DHT22;30214;52.246;14.408;2022-09-01T06:53:15;18.80;99.40
44509;DHT22;30214;52.246;14.408;2022-09-01T06:55:48;18.10;99.90
44509;DHT22;30214;52.246;14.408;2022-09-01T06:58:17;17.50;99.90
44509;DHT22;30214;52.246;14.408;2022-09-01T07:00:49;17.10;99.90
44509;DHT22;30214;52.246;14.408;2022-09-01T07:03:18;17.00;99.90
44509;DHT22;30214;52.246;14.408;2022-09-01T07:06:19;17.10;99.90
44509;DHT22;30214;52.246;14.408;2022-09-01T07:09:07;17.60;99.90
44509;DHT22;30214;52.246;14.408;2022-09-01T07:11:35;17.90;99.90
44509;DHT22;30214;52.246;14.408;2022-09-01T07:14:04;18.30;99.90
44509;DHT22;30214;52.246;14.408;2022-09-01T07:16:34;18.80;99.90
44509;DHT22;30214;52.246;14.408;2022-09-01T07:19:08;19.00;99.90
44509;DHT22;30214;52.246;14.408;2022-09-01T07:21:46;19.20;98.60
44509;DHT22;30214;52.246;14.408;2022-09-01T07:24:15;18.90;99.90
44509;DHT22;30214;52.246;14.408;2022-09-01T07:27:22;18.40;99.90
44509;DHT22;30214;52.246;14.408;2022-09-01T07:29:53;18.10;99.90
44509;DHT22;30214;52.246;14.408;2022-09-01T07:32:21;18.20;99.90
44509;DHT22;30214;52.246;14.408;2022-09-01T07:34:50;18.70;99.90
44509;DHT22;30214;52.246;14.408;2022-09-01T07:37:18;18.90;99.90
44509;DHT22;30214;52.246;14.408;2022-09-01T07:39:47;19.20;99.80
44509;DHT22;30214;52.246;14.408;2022-09-01T07:42:38;19.30;99.60
44509;DHT22;30214;52.246;14.408;2022-09-01T07:45:24;19.80;99.40
44509;DHT22;30214;52.246;14.408;2022-09-01T07:47:56;20.20;96.80
44509;DHT22;30214;52.246;14.408;2022-09-01T07:50:29;20.10;96.00
44509;DHT22;30214;52.246;14.408;2022-09-01T07:52:57;20.10;96.20
44509;DHT22;30214;52.246;14.408;2022-09-01T07:55:25;20.10;95.90
44509;DHT22;30214;52.246;14.408;2022-09-01T07:57:54;20.20;96.50
44509;DHT22;30214;52.246;14.408;2022-09-01T08:00:22;20.40;97.50
44509;DHT22;30214;52.246;14.408;2022-09-01T08:02:55;20.80;96.40
44509;DHT22;30214;52.246;14.408;2022-09-01T08:05:22;20.60;95.20
44509;DHT22;30214;52.246;14.408;2022-09-01T08:07:53;20.50;96.40
44509;DHT22;30214;52.246;14.408;2022-09-01T08:10:27;20.90;95.60
44509;DHT22;30214;52.246;14.408;2022-09-01T08:12:55;20.00;96.20
44509;DHT22;30214;52.246;14.408;2022-09-01T08:15:23;19.40;97.20
44509;DHT22;30214;52.246;14.408;2022-09-01T08:17:51;19.30;98.80
44509;DHT22;30214;52.246;14.408;2022-09-01T08:20:21;19.30;97.30
44509;DHT22;30214;52.246;14.408;2022-09-01T08:22:53;19.20;97.20
44509;DHT22;30214;52.246;14.408;2022-09-01T08:25:27;19.10;97.60
44509;DHT22;30214;52.246;14.408;2022-09-01T08:27:54;19.30;97.10
44509;DHT22;30214;52.246;14.408;2022-09-01T08:30:21;19.50;97.30
44509;DHT22;30214;52.246;14.408;2022-09-01T08:32:49;19.70;98.10
44509;DHT22;30214;52.246;14.408;2022-09-01T08:35:17;19.90;95.60
44509;DHT22;30214;52.246;14.408;2022-09-01T08:37:44;20.10;95.30
44509;DHT22;30214;52.246;14.408;2022-09-01T08:40:15;20.20;95.70
44509;DHT22;30214;52.246;14.408;2022-09-01T08:42:52;20.40;94.40
44509;DHT22;30214;52.246;14.408;2022-09-01T08:45:28;20.50;93.70
44509;DHT22;30214;52.246;14.408;2022-09-01T08:48:01;20.30;94.70
44509;DHT22;30214;52.246;14.408;2022-09-01T08:50:34;20.30;94.90
44509;DHT22;30214;52.246;14.408;2022-09-01T08:53:20;20.20;94.90
44509;DHT22;30214;52.246;14.408;2022-09-01T08:55:56;20.30;94.00
44509;DHT22;30214;52.246;14.408;2022-09-01T08:58:25;20.40;94.50
44509;DHT22;30214;52.246;14.408;2022-09-01T09:01:21;20.50;95.50
44509;DHT22;30214;52.246;14.408;2022-09-01T09:04:05;20.70;94.20
44509;DHT22;30214;52.246;14.408;2022-09-01T09:06:46;20.80;93.50
44509;DHT22;30214;52.246;14.408;2022-09-01T09:09:20;20.60;91.70
44509;DHT22;30214;52.246;14.408;2022-09-01T09:12:07;20.20;91.30
44509;DHT22;30214;52.246;14.408;2022-09-01T09:14:58;20.10;93.10
44509;DHT22;30214;52.246;14.408;2022-09-01T09:17:39;20.30;94.40
44509;DHT22;30214;52.246;14.408;2022-09-01T09:20:08;20.40;93.50
44509;DHT22;30214;52.246;14.408;2022-09-01T09:22:36;20.20;92.00
44509;DHT22;30214;52.246;14.408;2022-09-01T09:25:08;19.90;91.80
44509;DHT22;30214;52.246;14.408;2022-09-01T09:27:38;20.20;92.40
44509;DHT22;30214;52.246;14.408;2022-09-01T09:30:09;20.10;92.00
44509;DHT22;30214;52.246;14.408;2022-09-01T09:32:46;20.10;91.40
44509;DHT22;30214;52.246;14.408;2022-09-01T09:35:26;20.40;91.10
44509;DHT22;30214;52.246;14.408;2022-09-01T09:38:15;20.60;92.50
44509;DHT22;30214;52.246;14.408;2022-09-01T09:40:58;20.50;90.90
44509;DHT22;30214;52.246;14.408;2022-09-01T09:43:31;20.50;92.50
44509;DHT22;30214;52.246;14.408;2022-09-01T09:46:25;20.50;93.40
44509;DHT22;30214;52.246;14.408;2022-09-01T09:49:14;20.70;91.20
44509;DHT22;30214;52.246;14.408;2022-09-01T09:51:47;20.60;93.30
44509;DHT22;30214;52.246;14.408;2022-09-01T09:54:22;20.90;92.80
44509;DHT22;30214;52.246;14.408;2022-09-01T09:57:11;21.10;93.70
44509;DHT22;30214;52.246;14.408;2022-09-01T09:59:42;20.80;92.10
44509;DHT22;30214;52.246;14.408;2022-09-01T10:02:20;20.60;94.30
44509;DHT22;30214;52.246;14.408;2022-09-01T10:04:51;20.40;93.50
44509;DHT22;30214;52.246;14.408;2022-09-01T10:07:32;20.40;94.90
44509;DHT22;30214;52.246;14.408;2022-09-01T10:10:03;20.70;93.00
44509;DHT22;30214;52.246;14.408;2022-09-01T10:12:32;21.10;90.10
44509;DHT22;30214;52.246;14.408;2022-09-01T10:15:04;21.50;91.00
44509;DHT22;30214;52.246;14.408;2022-09-01T10:17:35;21.90;87.70
44509;DHT22;30214;52.246;14.408;2022-09-01T10:20:07;22.20;88.40
44509;DHT22;30214;52.246;14.408;2022-09-01T10:22:38;22.10;77.40
44509;DHT22;30214;52.246;14.408;2022-09-01T10:25:07;21.50;77.50
44509;DHT22;30214;52.246;14.408;2022-09-01T10:27:37;21.50;79.00
44509;DHT22;30214;52.246;14.408;2022-09-01T10:30:11;21.40;76.40
44509;DHT22;30214;52.246;14.408;2022-09-01T10:32:43;21.50;78.30
44509;DHT22;30214;52.246;14.408;2022-09-01T10:35:15;21.70;78.40
44509;DHT22;30214;52.246;14.408;2022-09-01T10:37:45;21.90;75.10
44509;DHT22;30214;52.246;14.408;2022-09-01T10:40:16;21.80;71.20
44509;DHT22;30214;52.246;14.408;2022-09-01T10:42:48;21.20;75.80
44509;DHT22;30214;52.246;14.408;2022-09-01T10:45:30;21.10;74.80
44509;DHT22;30214;52.246;14.408;2022-09-01T10:48:31;21.10;77.10
44509;DHT22;30214;52.246;14.408;2022-09-01T10:54:49;21.60;73.50
44509;DHT22;30214;52.246;14.408;2022-09-01T10:57:37;21.70;71.80
44509;DHT22;30214;52.246;14.408;2022-09-01T11:00:49;21.90;72.90
44509;DHT22;30214;52.246;14.408;2022-09-01T11:03:49;22.00;70.50
44509;DHT22;30214;52.246;14.408;2022-09-01T11:06:55;22.00;66.80
44509;DHT22;30214;52.246;14.408;2022-09-01T11:09:30;22.20;63.90
44509;DHT22;30214;52.246;14.408;2022-09-01T11:12:20;22.50;63.90
44509;DHT22;30214;52.246;14.408;2022-09-01T11:14:55;22.20;63.60
44509;DHT22;30214;52.246;14.408;2022-09-01T11:17:26;21.40;69.20
44509;DHT22;30214;52.246;14.408;2022-09-01T11:20:02;20.90;68.90
44509;DHT22;30214;52.246;14.408;2022-09-01T11:22:36;20.70;69.70
44509;DHT22;30214;52.246;14.408;2022-09-01T11:25:09;20.90;68.70
44509;DHT22;30214;52.246;14.408;2022-09-01T11:28:04;20.90;68.60
44509;DHT22;30214;52.246;14.408;2022-09-01T11:30:53;20.70;67.40
44509;DHT22;30214;52.246;14.408;2022-09-01T11:33:46;20.80;67.20
44509;DHT22;30214;52.246;14.408;2022-09-01T11:36:26;21.20;70.40
44509;DHT22;30214;52.246;14.408;2022-09-01T11:39:02;21.60;64.20
44509;DHT22;30214;52.246;14.408;2022-09-01T11:41:42;21.80;68.10
44509;DHT22;30214;52.246;14.408;2022-09-01T11:44:20;21.60;63.40
44509;DHT22;30214;52.246;14.408;2022-09-01T11:46:51;21.10;64.40
44509;DHT22;30214;52.246;14.408;2022-09-01T11:49:29;21.00;66.70
44509;DHT22;30214;52.246;14.408;2022-09-01T11:51:58;21.10;65.50
44509;DHT22;30214;52.246;14.408;2022-09-01T11:54:28;21.30;65.80
44509;DHT22;30214;52.246;14.408;2022-09-01T11:57:16;21.60;65.10
44509;DHT22;30214;52.246;14.408;2022-09-01T11:59:45;21.70;65.80
44509;DHT22;30214;52.246;14.408;2022-09-01T12:02:17;21.70;65.10
44509;DHT22;30214;52.246;14.408;2022-09-01T12:04:47;21.90;65.90
44509;DHT22;30214;52.246;14.408;2022-09-01T12:07:26;21.50;64.50
44509;DHT22;30214;52.246;14.408;2022-09-01T12:09:56;20.90;66.70
44509;DHT22;30214;52.246;14.408;2022-09-01T12:12:30;20.60;69.40
44509;DHT22;30214;52.246;14.408;2022-09-01T12:15:00;20.60;71.30
44509;DHT22;30214;52.246;14.408;2022-09-01T12:17:29;20.80;71.20
44509;DHT22;30214;52.246;14.408;2022-09-01T12:20:19;21.00;67.40
44509;DHT22;30214;52.246;14.408;2022-09-01T12:22:48;21.00;65.80
44509;DHT22;30214;52.246;14.408;2022-09-01T12:25:19;20.80;69.80
44509;DHT22;30214;52.246;14.408;2022-09-01T12:27:48;21.00;67.30
44509;DHT22;30214;52.246;14.408;2022-09-01T12:30:17;21.60;66.40
44509;DHT22;30214;52.246;14.408;2022-09-01T12:32:45;22.00;64.90
44509;DHT22;30214;52.246;14.408;2022-09-01T12:35:16;22.20;64.80
44509;DHT22;30214;52.246;14.408;2022-09-01T12:37:48;21.90;65.50
44509;DHT22;30214;52.246;14.408;2022-09-01T12:40:22;21.40;65.00
44509;DHT22;30214;52.246;14.408;2022-09-01T12:42:52;21.40;66.50
44509;DHT22;30214;52.246;14.408;2022-09-01T12:45:40;21.70;64.20
44509;DHT22;30214;52.246;14.408;2022-09-01T12:48:25;21.90;62.00
44509;DHT22;30214;52.246;14.408;2022-09-01T12:50:57;22.00;62.80
44509;DHT22;30214;52.246;14.408;2022-09-01T12:53:29;22.00;63.10
44509;DHT22;30214;52.246;14.408;2022-09-01T12:59:05;21.80;61.70
44509;DHT22;30214;52.246;14.408;2022-09-01T13:01:37;21.90;62.40
44509;DHT22;30214;52.246;14.408;2022-09-01T13:04:27;21.90;58.30
44509;DHT22;30214;52.246;14.408;2022-09-01T13:07:00;22.10;60.10
44509;DHT22;30214;52.246;14.408;2022-09-01T13:09:30;22.00;59.90
44509;DHT22;30214;52.246;14.408;2022-09-01T13:12:19;21.80;61.00
44509;DHT22;30214;52.246;14.408;2022-09-01T13:14:46;21.70;60.10
44509;DHT22;30214;52.246;14.408;2022-09-01T13:17:14;21.80;63.20
44509;DHT22;30214;52.246;14.408;2022-09-01T13:19:42;22.00;61.80
44509;DHT22;30214;52.246;14.408;2022-09-01T13:22:11;22.10;62.50
44509;DHT22;30214;52.246;14.408;2022-09-01T13:24:39;22.00;61.50
44509;DHT22;30214;52.246;14.408;2022-09-01T13:27:06;21.90;65.80
44509;DHT22;30214;52.246;14.408;2022-09-01T13:29:33;22.00;64.20
44509;DHT22;30214;52.246;14.408;2022-09-01T13:32:01;21.70;64.40
44509;DHT22;30214;52.246;14.408;2022-09-01T13:34:28;21.20;64.50
44509;DHT22;30214;52.246;14.408;2022-09-01T13:36:55;20.90;65.80
44509;DHT22;30214;52.246;14.408;2022-09-01T13:39:22;20.80;68.50
44509;DHT22;30214;52.246;14.408;2022-09-01T13:41:51;20.70;68.10
44509;DHT22;30214;52.246;14.408;2022-09-01T13:44:18;20.50;67.80
44509;DHT22;30214;52.246;14.408;2022-09-01T13:46:46;20.30;67.90
44509;DHT22;30214;52.246;14.408;2022-09-01T13:49:13;20.20;68.70
44509;DHT22;30214;52.246;14.408;2022-09-01T13:51:40;20.10;68.90
44509;DHT22;30214;52.246;14.408;2022-09-01T13:54:07;20.30;69.30
44509;DHT22;30214;52.246;14.408;2022-09-01T13:56:34;20.60;69.70
44509;DHT22;30214;52.246;14.408;2022-09-01T13:59:03;20.90;70.70
44509;DHT22;30214;52.246;14.408;2022-09-01T14:01:30;21.20;65.90
44509;DHT22;30214;52.246;14.408;2022-09-01T14:03:58;21.40;69.50
44509;DHT22;30214;52.246;14.408;2022-09-01T14:06:26;21.60;65.00
44509;DHT22;30214;52.246;14.408;2022-09-01T14:08:53;21.80;67.70
44509;DHT22;30214;52.246;14.408;2022-09-01T14:11:20;21.60;65.00
44509;DHT22;30214;52.246;14.408;2022-09-01T14:13:55;21.60;65.00
44509;DHT22;30214;52.246;14.408;2022-09-01T14:16:24;21.40;62.70
44509;DHT22;30214;52.246;14.408;2022-09-01T14:18:51;21.30;66.80
44509;DHT22;30214;52.246;14.408;2022-09-01T14:21:19;21.40;67.00
44509;DHT22;30214;52.246;14.408;2022-09-01T14:23:46;21.50;66.70
44509;DHT22;30214;52.246;14.408;2022-09-01T14:26:14;21.50;64.40
44509;DHT22;30214;52.246;14.408;2022-09-01T14:28:42;21.50;65.20
44509;DHT22;30214;52.246;14.408;2022-09-01T14:31:13;21.40;63.90
44509;DHT22;30214;52.246;14.408;2022-09-01T14:33:43;21.20;64.00
44509;DHT22;30214;52.246;14.408;2022-09-01T14:36:16;21.20;65.70
44509;DHT22;30214;52.246;14.408;2022-09-01T14:38:46;21.00;66.10
44509;DHT22;30214;52.246;14.408;2022-09-01T14:41:15;21.00;65.10
44509;DHT22;30214;52.246;14.408;2022-09-01T14:43:46;21.00;64.10
44509;DHT22;30214;52.246;14.408;2022-09-01T14:46:15;20.90;66.80
44509;DHT22;30214;52.246;14.408;2022-09-01T14:48:45;20.70;66.00
44509;DHT22;30214;52.246;14.408;2022-09-01T14:51:19;20.70;66.30
44509;DHT22;30214;52.246;14.408;2022-09-01T14:53:50;20.70;65.70
44509;DHT22;30214;52.246;14.408;2022-09-01T14:56:18;20.80;67.60
44509;DHT22;30214;52.246;14.408;2022-09-01T14:58:47;20.90;67.10
44509;DHT22;30214;52.246;14.408;2022-09-01T15:01:15;21.00;66.00
44509;DHT22;30214;52.246;14.408;2022-09-01T15:03:47;21.00;66.40
44509;DHT22;30214;52.246;14.408;2022-09-01T15:06:15;21.00;65.40
44509;DHT22;30214;52.246;14.408;2022-09-01T15:08:45;20.90;66.50
44509;DHT22;30214;52.246;14.408;2022-09-01T15:11:14;20.90;66.70
44509;DHT22;30214;52.246;14.408;2022-09-01T15:13:43;21.00;66.90
44509;DHT22;30214;52.246;14.408;2022-09-01T15:16:12;21.00;67.00
44509;DHT22;30214;52.246;14.408;2022-09-01T15:18:40;20.80;69.70
44509;DHT22;30214;52.246;14.408;2022-09-01T15:21:17;20.80;72.10
44509;DHT22;30214;52.246;14.408;2022-09-01T15:23:45;20.60;72.20
44509;DHT22;30214;52.246;14.408;2022-09-01T15:26:16;20.60;73.60
44509;DHT22;30214;52.246;14.408;2022-09-01T15:28:44;20.60;73.50
44509;DHT22;30214;52.246;14.408;2022-09-01T15:31:12;20.50;74.10
44509;DHT22;30214;52.246;14.408;2022-09-01T15:33:41;20.40;74.00
44509;DHT22;30214;52.246;14.408;2022-09-01T15:36:15;20.30;74.30
44509;DHT22;30214;52.246;14.408;2022-09-01T15:38:43;20.30;75.20
44509;DHT22;30214;52.246;14.408;2022-09-01T15:41:15;20.10;76.90
44509;DHT22;30214;52.246;14.408;2022-09-01T15:43:43;20.20;77.20
44509;DHT22;30214;52.246;14.408;2022-09-01T15:46:10;20.20;79.60
44509;DHT22;30214;52.246;14.408;2022-09-01T15:48:39;20.10;78.20
44509;DHT22;30214;52.246;14.408;2022-09-01T15:51:27;20.10;79.60
44509;DHT22;30214;52.246;14.408;2022-09-01T15:54:01;20.10;80.70
44509;DHT22;30214;52.246;14.408;2022-09-01T15:56:29;20.00;79.10